createdAt,value
2024-02-03T00:05:00.327Z,18.33
2024-02-03T00:14:33.939Z,17.90
2024-02-03T00:31:11.108Z,19.03
2024-02-03T00:33:47.262Z,18.30
2024-02-03T00:36:23.694Z,18.60
2024-02-03T00:38:52.845Z,19.40
2024-02-03T00:41:23.952Z,18.27
2024-02-03T00:44:04.618Z,18.97
2024-02-03T00:47:02.896Z,19.13
2024-02-03T00:49:32.702Z,18.77
2024-02-03T00:52:06.360Z,19.40
2024-02-03T00:54:35.624Z,19.30
2024-02-03T00:57:09.341Z,19.63
2024-02-03T00:59:54.667Z,19.13
2024-02-03T01:02:28.535Z,20.03
2024-02-03T01:05:00.086Z,18.90
2024-02-03T01:07:32.345Z,20.23
2024-02-03T01:10:04.567Z,17.13
2024-02-03T01:12:36.009Z,19.03
2024-02-03T01:15:08.907Z,19.33
2024-02-03T01:17:42.908Z,20.60
2024-02-03T01:20:16.524Z,19.67
2024-02-03T01:22:47.272Z,19.87
2024-02-03T01:25:19.069Z,19.70
2024-02-03T01:27:48.396Z,19.53
2024-02-03T01:30:18.626Z,18.93
2024-02-03T01:32:51.084Z,19.77
2024-02-03T01:38:19.459Z,17.47
2024-02-03T01:40:50.907Z,20.57
2024-02-03T01:43:26.816Z,19.60
2024-02-03T01:45:59.317Z,18.30
2024-02-03T01:48:32.368Z,18.13
2024-02-03T01:51:03.272Z,19.30
2024-02-03T01:53:36.360Z,18.80
2024-02-03T01:56:08.297Z,19.10
2024-02-03T02:01:45.990Z,17.57
2024-02-03T02:04:19.344Z,19.40
2024-02-03T02:06:48.627Z,19.67
2024-02-03T02:09:25.875Z,18.97
2024-02-03T02:11:59.888Z,17.77
2024-02-03T02:14:35.362Z,19.20
2024-02-03T02:17:05.006Z,18.50
2024-02-03T02:19:37.465Z,18.57
2024-02-03T02:22:09.207Z,18.50
2024-02-03T02:24:40.058Z,19.10
2024-02-03T02:27:22.639Z,18.27
2024-02-03T02:30:05.750Z,19.13
2024-02-03T02:32:35.291Z,18.43
2024-02-03T02:38:35.102Z,18.50
2024-02-03T02:41:04.123Z,18.30
2024-02-03T02:43:34.437Z,18.20
2024-02-03T02:46:05.124Z,18.83
2024-02-03T02:48:52.441Z,18.60
2024-02-03T02:51:21.619Z,18.97
2024-02-03T02:53:53.433Z,17.70
2024-02-03T02:56:22.512Z,18.27
2024-02-03T02:58:54.005Z,18.70
2024-02-03T03:16:30.790Z,18.90
2024-02-03T03:25:24.700Z,19.70
2024-02-03T03:28:07.211Z,18.57
2024-02-03T03:30:59.663Z,17.63
2024-02-03T03:42:43.449Z,17.50
2024-02-03T03:48:27.830Z,17.77
2024-02-03T04:00:24.280Z,17.30
2024-02-03T04:06:07.453Z,17.67
2024-02-03T04:09:02.029Z,17.03
2024-02-03T04:11:30.711Z,17.50
2024-02-03T04:14:00.074Z,17.43
2024-02-03T04:16:30.839Z,16.67
2024-02-03T04:19:01.811Z,17.93
2024-02-03T04:21:31.081Z,17.77
2024-02-03T04:24:00.045Z,17.23
2024-02-03T04:26:33.884Z,16.40
2024-02-03T04:29:03.053Z,16.27
2024-02-03T04:31:33.865Z,16.07
2024-02-03T04:34:03.461Z,16.70
2024-02-03T04:36:33.268Z,17.07
2024-02-03T04:39:07.459Z,17.03
2024-02-03T04:41:36.609Z,16.80
2024-02-03T04:44:10.934Z,16.23
2024-02-03T04:46:48.765Z,17.43
2024-02-03T04:49:34.920Z,16.70
2024-02-03T04:52:04.975Z,16.17
2024-02-03T04:54:39.485Z,16.80
2024-02-03T05:00:58.173Z,16.00
2024-02-03T05:03:39.291Z,17.20
2024-02-03T05:09:03.111Z,17.03
2024-02-03T05:11:50.445Z,16.70
2024-02-03T05:17:33.733Z,16.63
2024-02-03T05:20:23.630Z,16.90
2024-02-03T05:25:44.374Z,17.43
2024-02-03T05:28:22.291Z,17.50
2024-02-03T05:30:51.845Z,16.27
2024-02-03T05:33:30.207Z,16.23
2024-02-03T05:36:01.200Z,16.53
2024-02-03T05:38:30.990Z,16.50
2024-02-03T05:41:01.110Z,16.37
2024-02-03T05:43:31.286Z,15.70
2024-02-03T05:46:12.679Z,15.97
2024-02-03T05:58:21.087Z,16.83
2024-02-03T06:01:00.523Z,16.53
2024-02-03T06:03:32.845Z,15.90
2024-02-03T06:08:57.416Z,15.60
2024-02-03T06:11:26.981Z,15.70
2024-02-03T06:13:58.944Z,14.83
2024-02-03T06:16:46.104Z,15.27
2024-02-03T06:19:16.518Z,16.20
2024-02-03T06:21:45.845Z,15.90
2024-02-03T06:24:14.939Z,16.53
2024-02-03T06:26:44.172Z,14.83
2024-02-03T06:29:18.537Z,15.70
2024-02-03T06:31:49.003Z,16.07
2024-02-03T06:34:34.548Z,15.80
2024-02-03T06:37:25.424Z,15.43
2024-02-03T06:39:57.064Z,15.70
2024-02-03T06:42:43.926Z,15.37
2024-02-03T06:45:17.766Z,14.87
2024-02-03T06:47:51.122Z,14.87
2024-02-03T06:50:22.582Z,14.93
2024-02-03T06:52:53.654Z,14.67
2024-02-03T06:55:23.721Z,14.90
2024-02-03T06:58:09.853Z,14.63
2024-02-03T07:00:55.728Z,14.87
2024-02-03T07:03:27.786Z,14.93
2024-02-03T07:05:57.550Z,14.90
2024-02-03T07:08:46.521Z,14.83
2024-02-03T07:11:25.148Z,15.70
2024-02-03T07:14:12.180Z,14.30
2024-02-03T07:16:42.821Z,15.13
2024-02-03T07:19:12.174Z,15.00
2024-02-03T07:21:41.497Z,14.87
2024-02-03T07:24:13.028Z,15.03
2024-02-03T07:26:43.656Z,15.37
2024-02-03T07:29:12.834Z,14.67
2024-02-03T07:31:47.753Z,15.30
2024-02-03T07:34:18.722Z,15.27
2024-02-03T07:36:49.049Z,15.27
2024-02-03T07:39:29.538Z,13.60
2024-02-03T07:42:00.076Z,14.60
2024-02-03T07:44:29.412Z,14.90
2024-02-03T07:50:10.866Z,13.40
2024-02-03T07:58:53.700Z,10.97
2024-02-03T08:01:27.089Z,13.20
2024-02-03T08:04:04.860Z,14.67
2024-02-03T08:12:52.772Z,14.33
2024-02-03T08:30:30.335Z,13.10
2024-02-03T08:47:54.327Z,12.50
2024-02-03T08:56:58.396Z,14.20
2024-02-03T09:05:53.658Z,13.00
2024-02-03T09:11:19.935Z,13.70
2024-02-03T09:13:52.698Z,13.53
2024-02-03T09:16:23.111Z,13.90
2024-02-03T09:18:52.549Z,13.17
2024-02-03T09:21:22.954Z,13.57
2024-02-03T09:23:54.790Z,13.00
2024-02-03T09:26:27.002Z,13.73
2024-02-03T09:29:03.563Z,14.30
2024-02-03T09:31:33.550Z,12.87
2024-02-03T09:39:24.785Z,14.40
2024-02-03T09:42:00.161Z,13.47
2024-02-03T09:44:30.888Z,14.40
2024-02-03T09:47:00.116Z,13.80
2024-02-03T09:49:29.343Z,13.20
2024-02-03T09:52:00.678Z,13.40
2024-02-03T09:54:32.439Z,13.30
2024-02-03T09:59:58.158Z,13.07
2024-02-03T10:02:28.872Z,14.37
2024-02-03T10:04:59.691Z,13.43
2024-02-03T10:07:31.692Z,12.23
2024-02-03T10:13:17.617Z,12.30
2024-02-03T10:15:59.557Z,11.90
2024-02-03T10:18:29.646Z,13.00
2024-02-03T10:21:00.011Z,12.80
2024-02-03T10:23:28.928Z,11.90
2024-02-03T10:26:03.975Z,12.00
2024-02-03T10:28:33.062Z,11.70
2024-02-03T10:31:09.692Z,12.43
2024-02-03T10:33:46.872Z,12.50
2024-02-03T10:36:19.938Z,12.67
2024-02-03T10:38:53.496Z,12.50
2024-02-03T10:41:25.918Z,12.83
2024-02-03T10:44:05.187Z,12.77
2024-02-03T10:46:57.191Z,12.40
2024-02-03T10:52:20.269Z,12.77
2024-02-03T10:54:56.198Z,12.23
2024-02-03T10:57:26.951Z,12.37
2024-02-03T11:00:18.999Z,12.20
2024-02-03T11:02:58.333Z,12.67
2024-02-03T11:05:31.256Z,12.87
2024-02-03T11:08:12.047Z,12.43
2024-02-03T11:16:23.552Z,11.47
2024-02-03T11:25:07.268Z,12.03
2024-02-03T11:27:36.934Z,12.20
2024-02-03T11:35:02.335Z,12.07
2024-02-03T13:54:42.035Z,12.27
2024-02-03T13:57:15.600Z,12.83
2024-02-03T13:59:44.695Z,13.30
2024-02-03T14:02:13.756Z,13.40
2024-02-03T14:04:50.667Z,13.40
2024-02-03T14:31:38.294Z,13.10
2024-02-03T14:44:45.555Z,13.17
2024-02-03T16:19:21.671Z,14.57
2024-02-03T16:21:50.929Z,13.67
2024-02-03T16:30:04.032Z,13.07
2024-02-03T16:32:34.915Z,13.33
2024-02-03T16:35:14.957Z,13.97
2024-02-03T16:37:50.027Z,13.70
2024-02-03T17:15:46.084Z,11.80
2024-02-03T17:18:18.089Z,15.37
2024-02-03T17:41:51.710Z,16.10
2024-02-03T18:35:02.308Z,34.20
2024-02-03T18:38:12.985Z,27.67
2024-02-03T18:41:04.219Z,15.73
2024-02-03T18:44:15.462Z,13.17
2024-02-03T18:51:44.141Z,12.43
2024-02-03T18:57:42.717Z,12.10
2024-02-03T20:27:17.554Z,12.10
2024-02-03T20:29:46.422Z,11.90
2024-02-03T20:32:17.222Z,12.03
2024-02-03T20:34:50.668Z,11.60
2024-02-03T20:37:20.996Z,12.10
2024-02-03T20:39:51.645Z,12.30
2024-02-03T20:42:33.114Z,12.50
2024-02-03T20:45:36.027Z,12.97
2024-02-03T20:48:08.279Z,12.60
2024-02-03T20:50:37.302Z,12.77
2024-02-03T20:53:12.054Z,12.30
2024-02-03T20:55:43.859Z,11.90
2024-02-03T20:58:15.587Z,11.57
2024-02-03T21:00:45.427Z,11.80
2024-02-03T21:03:14.892Z,11.40
2024-02-03T21:05:44.041Z,12.13
2024-02-03T21:08:15.277Z,18.40
2024-02-03T21:10:45.892Z,20.00
2024-02-03T21:13:19.064Z,19.03
2024-02-03T21:15:48.763Z,18.23
2024-02-03T21:18:22.330Z,16.80
2024-02-03T21:20:52.550Z,17.00
2024-02-03T21:23:21.685Z,16.67
2024-02-03T21:25:50.391Z,15.70
2024-02-03T21:28:22.211Z,14.80
2024-02-03T21:30:51.159Z,14.80
2024-02-03T21:33:21.273Z,14.30
2024-02-03T21:36:08.016Z,14.40
2024-02-03T21:38:37.216Z,14.30
2024-02-03T21:52:31.190Z,15.90
